Time;durP1;ratioP1;P1;durP2;ratioP2;P2;SDS_P1;SDS_P2;PMS_P1;PMS_P2;Temp;Humidity;BMP_temperature;BMP_pressure;BME280_temperature;BME280_humidity;BME280_pressure;Samples;Min_cycle;Max_cycle;Signal;HPM_P1;HPM_P2
2021/10/19 00:01:53;;;;;;;17.57;14.50;;;11.10;99.90;;;;;;5051375;28;20193;-61
2021/10/19 00:04:19;;;;;;;17.10;14.50;;;11.20;99.90;;;;;;5050074;28;20276;-62
2021/10/19 00:06:44;;;;;;;17.17;13.87;;;11.20;99.90;;;;;;5054166;28;20190;-62
2021/10/19 00:09:10;;;;;;;16.07;14.07;;;11.30;99.90;;;;;;5054731;28;20174;-62
2021/10/19 00:11:36;;;;;;;15.00;12.60;;;11.30;99.90;;;;;;5055079;28;20754;-61
2021/10/19 00:14:02;;;;;;;19.27;13.80;;;11.40;99.90;;;;;;5054848;28;20313;-61
2021/10/19 00:16:27;;;;;;;15.43;13.87;;;11.40;99.90;;;;;;5047706;28;20617;-61
2021/10/19 00:18:53;;;;;;;17.23;14.67;;;11.50;99.90;;;;;;5034930;28;20649;-62
2021/10/19 00:21:18;;;;;;;18.10;14.93;;;11.50;99.90;;;;;;5035442;28;20171;-61
2021/10/19 00:23:44;;;;;;;18.03;14.43;;;11.50;99.90;;;;;;5054865;28;20199;-62
2021/10/19 00:26:09;;;;;;;16.07;14.13;;;11.60;99.90;;;;;;5055029;28;20232;-62
2021/10/19 00:28:36;;;;;;;20.10;15.83;;;11.60;99.90;;;;;;5054595;28;20179;-62
2021/10/19 00:31:02;;;;;;;17.67;15.37;;;11.50;99.90;;;;;;5054535;28;20533;-61
2021/10/19 00:33:27;;;;;;;16.90;15.20;;;11.60;99.90;;;;;;5054356;28;20186;-62
2021/10/19 00:35:53;;;;;;;15.83;14.23;;;11.50;99.90;;;;;;5054783;28;20186;-62
2021/10/19 00:38:19;;;;;;;15.63;14.10;;;11.50;99.90;;;;;;5054091;28;20174;-61
2021/10/19 00:40:44;;;;;;;15.60;13.37;;;11.50;99.90;;;;;;5054478;28;20163;-61
2021/10/19 00:43:10;;;;;;;15.63;14.00;;;11.50;99.90;;;;;;5054544;28;20183;-62
2021/10/19 00:45:35;;;;;;;16.37;13.53;;;11.50;99.90;;;;;;5054703;28;20214;-62
2021/10/19 00:48:05;;;;;;;14.70;13.10;;;11.40;99.90;;;;;;5054346;28;20189;-62
2021/10/19 00:50:30;;;;;;;15.00;13.47;;;11.40;99.90;;;;;;5054049;28;20178;-62
2021/10/19 00:52:57;;;;;;;14.17;12.63;;;11.40;99.90;;;;;;5054392;28;20524;-61
2021/10/19 00:55:23;;;;;;;16.70;13.70;;;11.40;99.90;;;;;;5054234;28;20286;-62
2021/10/19 00:57:50;;;;;;;15.10;13.60;;;11.40;99.90;;;;;;5054534;28;20171;-62
2021/10/19 01:00:15;;;;;;;14.90;12.60;;;11.30;99.90;;;;;;5053818;28;20179;-62
2021/10/19 01:02:43;;;;;;;15.60;13.50;;;11.30;99.90;;;;;;5054303;28;20244;-61
2021/10/19 01:05:11;;;;;;;14.93;13.30;;;11.40;99.90;;;;;;5053012;28;20214;-62
2021/10/19 01:07:37;;;;;;;15.47;13.80;;;11.30;99.90;;;;;;5054261;28;20170;-62
2021/10/19 01:10:05;;;;;;;16.37;13.83;;;11.40;99.90;;;;;;5053734;28;20202;-62
2021/10/19 01:12:31;;;;;;;15.83;14.17;;;11.40;99.90;;;;;;5054095;28;20167;-62
2021/10/19 01:14:56;;;;;;;16.87;12.77;;;11.40;99.90;;;;;;5053588;28;20761;-61
2021/10/19 01:17:22;;;;;;;18.53;14.10;;;11.40;99.90;;;;;;5053296;28;20179;-61
2021/10/19 01:19:51;;;;;;;15.13;12.87;;;11.40;99.90;;;;;;5053555;28;20213;-62
2021/10/19 01:22:17;;;;;;;14.00;12.70;;;11.50;99.90;;;;;;5052795;28;20198;-62
2021/10/19 01:24:44;;;;;;;14.37;12.90;;;11.50;99.90;;;;;;5053828;28;20202;-62
2021/10/19 01:27:11;;;;;;;16.07;13.47;;;11.50;99.90;;;;;;5053399;28;20190;-62
2021/10/19 01:29:37;;;;;;;16.93;12.83;;;11.50;99.90;;;;;;5053551;28;20183;-61
2021/10/19 01:32:02;;;;;;;15.10;13.50;;;11.50;99.90;;;;;;5053726;28;20181;-61
2021/10/19 01:34:35;;;;;;;13.73;12.03;;;11.60;99.90;;;;;;5053511;28;20750;-62
2021/10/19 01:37:03;;;;;;;15.40;13.17;;;11.60;99.90;;;;;;5053263;28;20183;-62
2021/10/19 01:39:29;;;;;;;16.13;13.07;;;11.70;99.90;;;;;;5053290;28;20181;-61
2021/10/19 01:41:55;;;;;;;16.63;13.23;;;11.70;99.90;;;;;;5052982;28;20175;-61
2021/10/19 01:44:20;;;;;;;13.13;11.83;;;11.60;99.90;;;;;;5053506;28;20710;-62
2021/10/19 01:46:46;;;;;;;14.63;13.13;;;11.60;99.90;;;;;;5053130;28;20183;-62
2021/10/19 01:49:11;;;;;;;14.87;13.37;;;11.50;99.90;;;;;;5053345;28;20241;-61
2021/10/19 01:51:37;;;;;;;14.03;12.63;;;11.40;99.90;;;;;;5053243;28;20183;-62
2021/10/19 01:54:03;;;;;;;14.37;12.80;;;11.40;99.90;;;;;;5053204;28;20296;-62
2021/10/19 01:56:28;;;;;;;16.00;14.50;;;11.30;99.90;;;;;;5053238;28;20167;-62
2021/10/19 01:58:54;;;;;;;15.17;13.43;;;11.30;99.90;;;;;;5053128;28;20659;-62
2021/10/19 02:01:20;;;;;;;15.83;14.17;;;11.30;99.90;;;;;;5052842;28;20671;-62
2021/10/19 02:03:46;;;;;;;16.97;13.03;;;11.20;99.90;;;;;;5052088;28;20170;-62
2021/10/19 02:06:11;;;;;;;14.80;12.80;;;11.20;99.90;;;;;;5053103;28;20182;-62
2021/10/19 02:08:37;;;;;;;15.40;12.97;;;11.20;99.90;;;;;;5053832;28;20675;-66
2021/10/19 02:11:03;;;;;;;16.47;13.83;;;11.20;99.90;;;;;;5053683;28;20183;-64
2021/10/19 02:13:29;;;;;;;15.40;13.80;;;11.20;99.90;;;;;;5052140;28;20190;-66
2021/10/19 02:15:54;;;;;;;17.23;14.57;;;11.20;99.90;;;;;;5054168;28;20205;-64
2021/10/19 02:18:20;;;;;;;16.43;14.67;;;11.20;99.90;;;;;;5053722;28;20171;-67
2021/10/19 02:20:45;;;;;;;15.20;13.70;;;11.20;99.90;;;;;;5052241;28;20173;-65
2021/10/19 02:23:11;;;;;;;15.53;13.47;;;11.20;99.90;;;;;;5053601;28;20159;-65
2021/10/19 02:25:37;;;;;;;16.07;14.37;;;11.20;99.90;;;;;;5053056;28;20199;-67
2021/10/19 02:28:03;;;;;;;17.90;14.87;;;11.20;99.90;;;;;;5053371;28;20246;-70
2021/10/19 02:30:28;;;;;;;20.70;15.90;;;11.10;99.90;;;;;;5051778;28;20190;-69
2021/10/19 02:32:55;;;;;;;17.27;14.80;;;11.10;99.90;;;;;;5053601;28;20206;-66
2021/10/19 02:35:22;;;;;;;16.07;14.20;;;11.20;99.90;;;;;;5053012;28;20203;-65
2021/10/19 02:37:49;;;;;;;19.30;15.47;;;11.20;99.90;;;;;;5053686;28;20166;-66
2021/10/19 02:40:16;;;;;;;16.13;13.77;;;11.10;99.90;;;;;;5052668;28;20520;-67
2021/10/19 02:42:43;;;;;;;16.33;13.47;;;11.10;99.90;;;;;;5053458;28;20636;-66
2021/10/19 02:45:09;;;;;;;17.07;14.50;;;11.10;99.90;;;;;;5052952;28;20202;-69
2021/10/19 02:47:35;;;;;;;19.90;14.77;;;11.10;99.90;;;;;;5053510;28;20171;-69
2021/10/19 02:50:01;;;;;;;22.47;15.10;;;11.10;99.90;;;;;;5052619;28;20174;-69
2021/10/19 02:52:26;;;;;;;19.20;15.30;;;11.20;99.90;;;;;;5052909;28;20183;-68
2021/10/19 02:54:52;;;;;;;20.67;14.83;;;11.20;99.90;;;;;;5052870;28;20338;-69
2021/10/19 02:57:19;;;;;;;15.97;14.23;;;11.20;99.90;;;;;;5052763;28;20178;-67
2021/10/19 02:59:44;;;;;;;18.90;15.37;;;11.20;99.90;;;;;;5051687;28;20599;-67
2021/10/19 03:02:10;;;;;;;21.73;15.40;;;11.20;99.90;;;;;;5051894;28;20270;-68
2021/10/19 03:04:36;;;;;;;18.53;15.67;;;11.30;99.90;;;;;;5051812;28;20222;-70
2021/10/19 03:07:02;;;;;;;18.03;15.23;;;11.20;99.90;;;;;;5052775;28;20663;-69
2021/10/19 03:09:28;;;;;;;17.27;14.90;;;11.30;99.90;;;;;;5052060;28;20232;-69
2021/10/19 03:11:53;;;;;;;18.07;15.23;;;11.30;99.90;;;;;;5052884;28;20645;-68
2021/10/19 03:14:19;;;;;;;17.83;14.23;;;11.30;99.90;;;;;;5052094;28;20298;-70
2021/10/19 03:16:44;;;;;;;20.87;15.40;;;11.30;99.90;;;;;;5052694;28;20174;-70
2021/10/19 03:19:10;;;;;;;18.63;13.63;;;11.30;99.90;;;;;;5052171;28;20660;-68
2021/10/19 03:21:35;;;;;;;19.83;14.90;;;11.40;99.90;;;;;;5052861;28;20254;-70
2021/10/19 03:24:01;;;;;;;22.20;15.03;;;11.40;99.90;;;;;;5052347;28;20206;-69
2021/10/19 03:26:27;;;;;;;17.70;15.77;;;11.40;99.90;;;;;;5052310;28;20171;-68
2021/10/19 03:28:53;;;;;;;19.43;17.03;;;11.50;99.90;;;;;;5052246;28;20175;-69
2021/10/19 03:31:18;;;;;;;17.47;15.40;;;11.50;99.90;;;;;;5040260;28;20567;-69
2021/10/19 03:33:44;;;;;;;17.60;14.87;;;11.50;99.90;;;;;;5032340;28;20336;-66
2021/10/19 03:36:10;;;;;;;16.63;13.50;;;11.50;99.90;;;;;;5032901;28;20645;-68
2021/10/19 03:38:37;;;;;;;18.53;15.30;;;11.50;99.90;;;;;;5051624;28;20186;-66
2021/10/19 03:41:03;;;;;;;17.27;15.23;;;11.60;99.90;;;;;;5054221;28;20539;-65
2021/10/19 03:43:29;;;;;;;17.80;14.63;;;11.60;99.90;;;;;;5056222;28;20178;-67
2021/10/19 03:45:54;;;;;;;17.93;15.90;;;11.60;99.90;;;;;;5056386;28;20178;-69
2021/10/19 03:48:20;;;;;;;17.97;14.77;;;11.60;99.90;;;;;;5056305;28;20174;-63
2021/10/19 03:50:45;;;;;;;20.97;15.43;;;11.70;99.90;;;;;;5055303;28;20873;-64
2021/10/19 03:53:12;;;;;;;20.47;15.53;;;11.70;99.90;;;;;;5055242;28;20525;-64
2021/10/19 03:55:38;;;;;;;18.33;14.33;;;11.70;99.90;;;;;;5055392;28;20588;-63
2021/10/19 03:58:04;;;;;;;21.83;14.63;;;11.70;99.90;;;;;;5055030;28;20185;-64
2021/10/19 04:00:29;;;;;;;18.53;15.17;;;11.70;99.90;;;;;;5054987;28;20163;-64
2021/10/19 04:02:55;;;;;;;20.33;15.30;;;11.70;99.90;;;;;;5055058;28;20186;-64
2021/10/19 04:05:21;;;;;;;17.77;15.00;;;11.70;99.90;;;;;;5128705;22;20271;-65
2021/10/19 04:07:46;;;;;;;23.80;16.43;;;11.70;99.90;;;;;;5075236;28;20170;-66
2021/10/19 04:10:14;;;;;;;24.37;18.57;;;11.70;99.90;;;;;;5074815;28;20177;-67
2021/10/19 04:12:40;;;;;;;25.57;18.47;;;11.70;99.90;;;;;;5056118;28;20216;-67
2021/10/19 04:15:06;;;;;;;24.20;17.83;;;11.70;99.90;;;;;;5054801;28;20241;-67
2021/10/19 04:17:32;;;;;;;21.03;18.73;;;11.60;99.90;;;;;;5071724;28;20174;-67
2021/10/19 04:19:57;;;;;;;25.77;18.40;;;11.60;99.90;;;;;;5067964;28;20209;-66
2021/10/19 04:22:23;;;;;;;21.77;17.70;;;11.60;99.90;;;;;;5054834;28;20624;-66
2021/10/19 04:24:52;;;;;;;25.73;18.97;;;11.60;99.90;;;;;;5058016;28;20190;-64
2021/10/19 04:27:18;;;;;;;22.67;16.67;;;11.60;99.90;;;;;;5074713;28;20178;-66
2021/10/19 04:29:44;;;;;;;26.73;17.23;;;11.60;99.90;;;;;;5071768;28;20609;-66
2021/10/19 04:32:09;;;;;;;23.00;18.40;;;11.60;99.90;;;;;;5073726;28;20228;-66
2021/10/19 04:34:35;;;;;;;24.30;17.63;;;11.70;99.90;;;;;;5071883;28;20212;-67
2021/10/19 04:37:00;;;;;;;23.90;18.47;;;11.70;99.90;;;;;;5054314;28;20538;-66
2021/10/19 04:39:27;;;;;;;26.10;18.43;;;11.70;99.90;;;;;;5052839;28;20175;-64
2021/10/19 04:41:54;;;;;;;25.03;17.80;;;11.60;99.90;;;;;;5074350;28;20172;-66
2021/10/19 04:44:19;;;;;;;26.13;18.40;;;11.60;99.90;;;;;;5074571;28;20210;-65
2021/10/19 04:46:45;;;;;;;26.70;18.77;;;11.60;99.90;;;;;;5055670;28;20174;-64
2021/10/19 04:49:11;;;;;;;26.13;19.07;;;11.60;99.90;;;;;;5066342;28;20178;-64
2021/10/19 04:51:36;;;;;;;28.17;19.20;;;11.60;99.90;;;;;;5073474;28;20231;-64
2021/10/19 04:54:02;;;;;;;28.50;18.53;;;11.60;99.90;;;;;;5062419;28;20263;-65
2021/10/19 04:56:27;;;;;;;25.50;18.03;;;11.60;99.90;;;;;;5054193;28;20255;-64
2021/10/19 04:58:53;;;;;;;27.17;17.83;;;11.70;99.90;;;;;;5062971;28;20679;-64
2021/10/19 05:01:19;;;;;;;25.00;17.73;;;11.70;99.90;;;;;;5074047;28;20181;-66
2021/10/19 05:03:46;;;;;;;26.73;18.50;;;11.70;99.90;;;;;;5054909;28;20178;-65
2021/10/19 05:06:13;;;;;;;23.13;17.07;;;11.70;99.90;;;;;;5053658;28;20210;-65
2021/10/19 05:08:40;;;;;;;20.70;17.37;;;11.70;99.90;;;;;;5071523;28;20202;-66
2021/10/19 05:11:06;;;;;;;22.40;18.23;;;11.70;99.90;;;;;;5073578;28;20236;-64
2021/10/19 05:13:32;;;;;;;29.63;18.53;;;11.70;99.90;;;;;;5060562;28;20186;-64
2021/10/19 05:15:57;;;;;;;23.67;17.87;;;11.70;99.90;;;;;;5069448;28;20202;-63
2021/10/19 05:18:23;;;;;;;25.07;18.23;;;11.70;99.90;;;;;;5056974;28;20236;-66
2021/10/19 05:20:49;;;;;;;26.33;18.70;;;11.70;99.90;;;;;;5054677;28;20214;-64
2021/10/19 05:23:14;;;;;;;24.90;20.90;;;11.70;99.90;;;;;;5053820;28;20179;-64
2021/10/19 05:25:40;;;;;;;27.47;23.77;;;11.70;99.90;;;;;;5062418;28;20210;-66
2021/10/19 05:28:05;;;;;;;28.27;20.10;;;11.70;99.90;;;;;;5073867;28;20178;-66
2021/10/19 05:30:32;;;;;;;22.67;16.63;;;11.80;99.90;;;;;;5071904;28;20182;-65
2021/10/19 05:32:57;;;;;;;26.57;17.90;;;11.80;99.90;;;;;;5073728;28;20247;-65
2021/10/19 05:35:23;;;;;;;24.33;18.03;;;11.80;99.90;;;;;;5071545;28;20702;-66
2021/10/19 05:37:48;;;;;;;27.53;18.23;;;11.80;99.90;;;;;;5073669;28;20181;-64
2021/10/19 05:40:14;;;;;;;24.23;20.03;;;11.80;99.90;;;;;;5071522;28;20181;-64
2021/10/19 05:42:40;;;;;;;31.07;22.60;;;11.80;99.90;;;;;;5054001;28;20186;-65
2021/10/19 05:45:06;;;;;;;24.20;20.13;;;11.70;99.90;;;;;;5054429;28;20217;-65
2021/10/19 05:47:32;;;;;;;22.97;19.77;;;11.80;99.90;;;;;;5052779;28;20270;-64
2021/10/19 05:49:58;;;;;;;25.83;19.37;;;11.80;99.90;;;;;;5053633;28;20265;-64
2021/10/19 05:52:23;;;;;;;24.93;18.87;;;11.80;99.90;;;;;;5053620;28;20189;-65
2021/10/19 05:54:49;;;;;;;29.90;19.93;;;11.80;99.90;;;;;;5053989;28;20211;-64
2021/10/19 05:57:14;;;;;;;26.10;19.03;;;11.80;99.90;;;;;;5053103;28;20701;-65
2021/10/19 05:59:40;;;;;;;20.27;16.30;;;11.80;99.90;;;;;;5053404;28;20174;-65
2021/10/19 06:02:05;;;;;;;25.27;19.70;;;11.80;99.90;;;;;;5072986;28;20261;-65
2021/10/19 06:04:31;;;;;;;24.17;18.40;;;11.90;99.90;;;;;;5069907;28;20706;-64
2021/10/19 06:07:01;;;;;;;26.63;18.67;;;11.90;99.90;;;;;;5052953;28;20244;-65
2021/10/19 06:09:28;;;;;;;29.57;21.50;;;11.90;99.90;;;;;;5052608;28;20178;-65
2021/10/19 06:11:54;;;;;;;31.17;25.13;;;11.90;99.90;;;;;;5052926;28;20178;-65
2021/10/19 06:14:22;;;;;;;32.77;28.30;;;11.90;99.90;;;;;;5052701;28;20213;-65
2021/10/19 06:16:48;;;;;;;25.43;20.33;;;11.90;99.90;;;;;;5071282;28;20175;-64
2021/10/19 06:19:14;;;;;;;22.90;17.77;;;11.90;99.90;;;;;;5072345;28;20181;-64
2021/10/19 06:21:41;;;;;;;22.83;17.43;;;12.00;99.90;;;;;;5055277;28;20181;-64
2021/10/19 06:24:07;;;;;;;24.43;18.53;;;12.00;99.90;;;;;;5052358;28;20205;-65
2021/10/19 06:26:35;;;;;;;28.40;19.77;;;12.00;99.90;;;;;;5067764;28;20235;-65
2021/10/19 06:29:03;;;;;;;35.93;31.60;;;12.00;99.90;;;;;;5071825;28;20639;-64
2021/10/19 06:31:29;;;;;;;36.47;32.83;;;12.00;99.90;;;;;;5057467;28;20536;-64
2021/10/19 06:33:55;;;;;;;27.63;23.50;;;12.10;99.90;;;;;;5061869;28;20209;-65
2021/10/19 06:36:20;;;;;;;27.53;24.20;;;12.10;99.90;;;;;;5071445;28;20192;-65
2021/10/19 06:38:46;;;;;;;29.73;24.40;;;12.10;99.90;;;;;;5070620;28;20200;-65
2021/10/19 06:41:11;;;;;;;27.77;24.87;;;12.10;99.90;;;;;;5070473;28;20264;-65
2021/10/19 06:43:37;;;;;;;25.30;19.60;;;12.20;99.90;;;;;;5070610;28;20623;-65
2021/10/19 06:46:04;;;;;;;24.80;19.40;;;12.20;99.90;;;;;;5072101;28;20201;-65
2021/10/19 06:48:29;;;;;;;29.27;25.80;;;12.20;99.90;;;;;;5056744;28;20490;-65
2021/10/19 06:50:55;;;;;;;28.53;25.43;;;12.20;99.90;;;;;;5051854;28;20186;-66
2021/10/19 06:53:21;;;;;;;30.83;27.73;;;12.20;99.90;;;;;;5053088;28;20293;-65
2021/10/19 06:55:46;;;;;;;23.10;20.60;;;12.20;99.90;;;;;;5052184;28;20213;-64
2021/10/19 06:58:12;;;;;;;26.53;19.67;;;12.20;99.90;;;;;;5053140;28;20628;-65
2021/10/19 07:00:38;;;;;;;23.50;16.70;;;12.30;99.90;;;;;;5051697;28;20663;-65
2021/10/19 07:03:04;;;;;;;20.83;15.90;;;12.30;99.90;;;;;;5069318;28;20612;-64
2021/10/19 07:05:29;;;;;;;22.80;17.63;;;12.30;99.90;;;;;;5069583;28;20209;-65
2021/10/19 07:07:55;;;;;;;20.80;16.80;;;12.40;99.90;;;;;;5070260;28;20545;-64
2021/10/19 07:10:21;;;;;;;23.50;18.57;;;12.40;99.90;;;;;;5071395;28;20235;-64
2021/10/19 07:12:47;;;;;;;18.03;16.13;;;12.40;99.90;;;;;;5057521;28;20174;-64
2021/10/19 07:15:14;;;;;;;25.50;19.23;;;12.40;99.90;;;;;;5051020;28;20234;-65
2021/10/19 07:17:40;;;;;;;20.30;16.77;;;12.50;99.90;;;;;;5057120;28;20186;-65
2021/10/19 07:20:08;;;;;;;22.43;18.63;;;12.50;99.90;;;;;;5051270;28;20174;-65
2021/10/19 07:22:35;;;;;;;24.17;17.10;;;12.60;99.90;;;;;;5062290;28;20186;-66
2021/10/19 07:25:01;;;;;;;22.20;17.50;;;12.60;99.90;;;;;;5071264;28;20194;-65
2021/10/19 07:27:27;;;;;;;23.27;17.43;;;12.70;99.90;;;;;;5061749;28;20182;-65
2021/10/19 07:29:53;;;;;;;21.33;16.47;;;12.70;99.90;;;;;;5052776;28;20236;-65
2021/10/19 07:32:19;;;;;;;20.90;15.70;;;12.70;99.90;;;;;;5061099;28;20178;-65
2021/10/19 07:34:44;;;;;;;20.73;14.60;;;12.80;99.90;;;;;;5051276;28;20680;-65
2021/10/19 07:37:10;;;;;;;20.13;16.13;;;12.80;99.90;;;;;;5053720;28;20600;-65
2021/10/19 07:39:35;;;;;;;20.43;18.47;;;12.80;99.90;;;;;;5071283;28;20260;-65
2021/10/19 07:42:01;;;;;;;23.10;20.90;;;12.80;99.90;;;;;;5070374;28;20245;-65
2021/10/19 07:44:27;;;;;;;23.53;21.23;;;12.80;99.90;;;;;;5050738;28;20682;-64
2021/10/19 07:46:52;;;;;;;24.87;22.60;;;12.80;99.90;;;;;;5051108;28;20174;-65
2021/10/19 07:49:21;;;;;;;23.00;20.83;;;12.90;99.90;;;;;;5069649;28;20239;-65
2021/10/19 07:51:47;;;;;;;21.70;19.47;;;12.80;99.90;;;;;;5071241;28;20205;-65
2021/10/19 07:54:13;;;;;;;19.80;17.70;;;12.90;99.90;;;;;;5053264;28;20364;-65
2021/10/19 07:56:39;;;;;;;21.03;19.13;;;12.90;99.90;;;;;;5051106;28;20577;-65
2021/10/19 07:59:05;;;;;;;22.90;20.67;;;12.90;99.90;;;;;;5066390;28;20265;-64
2021/10/19 08:01:33;;;;;;;22.97;20.83;;;12.90;99.90;;;;;;5071291;28;20219;-65
2021/10/19 08:03:59;;;;;;;22.77;20.37;;;12.90;99.90;;;;;;5056975;28;20178;-64
2021/10/19 08:06:25;;;;;;;20.87;19.00;;;12.90;99.90;;;;;;5050972;28;20186;-64
2021/10/19 08:08:50;;;;;;;25.80;23.57;;;13.00;99.90;;;;;;5069258;28;20178;-65
2021/10/19 08:11:17;;;;;;;27.47;25.00;;;13.00;99.90;;;;;;5070623;28;20185;-65
2021/10/19 08:13:42;;;;;;;24.77;22.60;;;13.00;99.90;;;;;;5054108;28;20179;-64
2021/10/19 08:16:08;;;;;;;22.90;20.90;;;13.10;99.90;;;;;;5050940;28;20202;-65
2021/10/19 08:18:33;;;;;;;23.03;20.93;;;13.10;99.90;;;;;;5051838;28;20640;-65
2021/10/19 08:20:59;;;;;;;21.13;19.10;;;13.10;99.90;;;;;;5064804;28;20254;-64
2021/10/19 08:23:27;;;;;;;22.53;20.60;;;13.10;99.90;;;;;;5057665;28;20183;-65
2021/10/19 08:25:53;;;;;;;23.40;21.53;;;13.20;99.90;;;;;;5051995;28;20685;-65
2021/10/19 08:28:23;;;;;;;24.47;22.33;;;13.20;99.90;;;;;;5053172;28;20171;-65
2021/10/19 08:30:50;;;;;;;22.83;20.77;;;13.20;99.90;;;;;;5056553;28;20178;-65
2021/10/19 08:33:16;;;;;;;23.40;21.47;;;13.30;99.90;;;;;;5074427;28;20181;-65
2021/10/19 08:35:42;;;;;;;21.47;19.13;;;13.30;99.90;;;;;;5073502;28;20206;-65
2021/10/19 08:38:07;;;;;;;21.00;18.87;;;13.40;99.90;;;;;;5074094;28;20166;-65
2021/10/19 08:40:33;;;;;;;16.50;14.77;;;13.40;99.90;;;;;;5073958;28;20265;-65
2021/10/19 08:43:00;;;;;;;16.50;14.43;;;13.50;99.90;;;;;;5055120;28;20205;-65
2021/10/19 08:45:29;;;;;;;15.20;13.03;;;13.50;99.90;;;;;;5056271;28;20217;-65
2021/10/19 08:47:55;;;;;;;15.17;13.77;;;13.60;99.90;;;;;;5074393;28;20177;-65
2021/10/19 08:50:23;;;;;;;14.60;13.23;;;13.60;99.90;;;;;;5072405;28;20713;-64
2021/10/19 08:52:49;;;;;;;15.97;14.37;;;13.60;99.90;;;;;;5070851;28;20170;-64
2021/10/19 08:55:15;;;;;;;18.60;16.60;;;13.60;99.90;;;;;;5061071;28;20214;-64
2021/10/19 08:57:41;;;;;;;16.63;14.97;;;13.70;99.90;;;;;;5054274;28;20175;-64
2021/10/19 09:00:09;;;;;;;17.47;15.97;;;13.70;99.90;;;;;;5064722;28;20181;-64
2021/10/19 09:02:43;;;;;;;16.50;14.83;;;13.70;99.90;;;;;;5074112;28;20197;-65
2021/10/19 09:05:16;;;;;;;25.00;23.20;;;13.70;99.90;;;;;;5063086;28;20297;-65
2021/10/19 09:08:12;;;;;;;15.17;13.87;;;13.80;99.90;;;;;;5053385;28;20167;-64
2021/10/19 09:10:42;;;;;;;14.30;12.80;;;13.80;99.90;;;;;;5066092;28;20604;-63
2021/10/19 09:13:15;;;;;;;13.50;12.20;;;13.80;99.90;;;;;;5073827;28;20166;-65
2021/10/19 09:15:43;;;;;;;13.77;12.37;;;13.80;99.90;;;;;;5060076;28;20268;-65
2021/10/19 09:18:18;;;;;;;16.50;15.07;;;13.90;99.90;;;;;;5053756;28;20648;-64
2021/10/19 09:20:50;;;;;;;16.00;14.43;;;13.90;99.90;;;;;;5054482;28;20637;-64
2021/10/19 09:23:18;;;;;;;14.83;13.43;;;13.90;99.90;;;;;;5053514;28;20162;-65
2021/10/19 09:25:49;;;;;;;13.93;12.63;;;13.90;99.90;;;;;;5065818;28;20201;-65
2021/10/19 09:28:29;;;;;;;24.20;22.30;;;14.00;99.90;;;;;;5073474;28;20170;-64
2021/10/19 09:30:55;;;;;;;26.47;24.53;;;14.00;99.90;;;;;;5071691;28;20174;-64
2021/10/19 09:33:21;;;;;;;28.37;26.23;;;14.00;99.90;;;;;;5073440;28;20175;-64
2021/10/19 09:35:48;;;;;;;28.67;26.60;;;14.00;99.90;;;;;;5061647;28;20206;-65
2021/10/19 09:38:14;;;;;;;30.83;28.47;;;14.00;99.90;;;;;;5052845;28;20167;-65
2021/10/19 09:40:42;;;;;;;28.27;26.20;;;14.10;99.90;;;;;;5062586;28;20181;-65
2021/10/19 09:43:14;;;;;;;30.60;28.43;;;14.10;99.90;;;;;;5072400;28;20178;-65
2021/10/19 09:45:43;;;;;;;24.03;22.13;;;14.20;99.90;;;;;;5063850;28;20207;-64
2021/10/19 09:48:17;;;;;;;27.33;25.27;;;14.20;99.90;;;;;;5054275;28;20171;-65
2021/10/19 09:50:45;;;;;;;24.13;22.37;;;14.30;99.90;;;;;;5071862;28;20166;-65
2021/10/19 09:53:13;;;;;;;22.37;20.27;;;14.30;99.90;;;;;;5058803;28;20171;-64
2021/10/19 09:55:41;;;;;;;18.67;16.30;;;14.40;99.90;;;;;;5052977;28;20290;-64
2021/10/19 09:58:07;;;;;;;21.83;19.73;;;14.40;99.90;;;;;;5062251;28;20170;-65
2021/10/19 10:00:33;;;;;;;26.60;24.60;;;14.40;99.90;;;;;;5067306;28;20273;-66
2021/10/19 10:03:03;;;;;;;33.10;30.37;;;14.40;99.90;;;;;;5071065;28;20253;-64
2021/10/19 10:05:30;;;;;;;34.33;31.93;;;14.40;99.90;;;;;;5098647;22;20264;-66
2021/10/19 10:07:56;;;;;;;31.60;29.40;;;14.50;99.90;;;;;;5072245;28;20349;-67
2021/10/19 10:10:23;;;;;;;31.33;29.13;;;14.50;99.90;;;;;;5072404;28;20166;-67
2021/10/19 10:12:59;;;;;;;30.77;28.63;;;14.50;99.90;;;;;;5067076;28;20185;-66
2021/10/19 10:15:27;;;;;;;28.17;26.03;;;14.60;99.90;;;;;;5052494;28;20203;-65
2021/10/19 10:18:00;;;;;;;25.43;23.53;;;14.60;99.90;;;;;;5065984;28;20260;-66
2021/10/19 10:20:44;;;;;;;32.97;30.67;;;14.60;99.90;;;;;;5072515;28;20201;-67
2021/10/19 10:23:30;;;;;;;27.20;25.30;;;14.70;99.90;;;;;;5070800;28;20170;-66
2021/10/19 10:25:58;;;;;;;23.43;21.60;;;14.70;99.90;;;;;;5072501;28;20198;-67
2021/10/19 10:28:30;;;;;;;20.10;18.50;;;14.80;99.90;;;;;;5056036;28;20262;-67
2021/10/19 10:30:58;;;;;;;18.60;17.00;;;14.80;99.90;;;;;;5051272;28;20198;-66
2021/10/19 10:33:34;;;;;;;18.00;16.37;;;14.90;99.90;;;;;;5066721;28;20710;-66
2021/10/19 10:36:11;;;;;;;23.53;21.70;;;14.90;99.90;;;;;;5070799;28;20200;-67
2021/10/19 10:38:38;;;;;;;20.33;18.63;;;14.90;99.90;;;;;;5054923;28;20170;-68
2021/10/19 10:41:14;;;;;;;14.57;13.17;;;15.00;99.90;;;;;;5052227;28;20177;-67
2021/10/19 10:43:41;;;;;;;27.00;25.07;;;15.00;99.90;;;;;;5069252;28;20174;-67
2021/10/19 10:46:19;;;;;;;40.63;38.03;;;15.00;99.90;;;;;;5058817;28;20195;-67
2021/10/19 10:48:45;;;;;;;40.57;37.93;;;15.10;99.90;;;;;;5052345;28;20519;-67
2021/10/19 10:51:12;;;;;;;20.00;18.63;;;15.20;99.90;;;;;;5063231;28;20261;-66
2021/10/19 10:53:42;;;;;;;14.80;13.57;;;15.20;99.90;;;;;;5072228;28;20166;-66
2021/10/19 10:56:09;;;;;;;13.03;11.73;;;15.20;99.90;;;;;;5059752;28;20691;-66
2021/10/19 10:58:38;;;;;;;13.67;12.33;;;15.30;99.90;;;;;;5052033;28;20171;-68
2021/10/19 11:01:17;;;;;;;13.47;12.47;;;15.30;99.90;;;;;;5062486;28;20654;-66
2021/10/19 11:03:44;;;;;;;14.53;13.43;;;15.40;99.90;;;;;;5071923;28;20194;-68
2021/10/19 11:06:18;;;;;;;13.17;12.00;;;15.50;99.90;;;;;;5060269;28;20241;-67
2021/10/19 11:08:47;;;;;;;17.47;16.33;;;15.60;99.90;;;;;;5052015;28;20261;-66
2021/10/19 11:11:18;;;;;;;13.30;12.13;;;15.60;99.90;;;;;;5061752;28;20174;-66
2021/10/19 11:13:54;;;;;;;11.90;10.63;;;15.60;99.90;;;;;;5064004;28;20182;-67
2021/10/19 11:16:44;;;;;;;15.63;14.13;;;15.60;99.90;;;;;;5051516;28;20682;-65
2021/10/19 11:19:35;;;;;;;15.00;14.00;;;15.60;99.90;;;;;;5061437;28;20183;-65
2021/10/19 11:22:06;;;;;;;13.97;13.10;;;15.60;99.90;;;;;;5070690;28;20608;-65
2021/10/19 11:24:34;;;;;;;10.70;9.80;;;15.70;99.90;;;;;;5058314;28;20189;-64
2021/10/19 11:27:02;;;;;;;12.20;11.20;;;15.70;99.90;;;;;;5051625;28;20246;-65
2021/10/19 11:29:30;;;;;;;10.50;9.60;;;15.80;99.90;;;;;;5062534;28;20239;-64
2021/10/19 11:31:56;;;;;;;10.20;9.27;;;15.90;99.90;;;;;;5070003;28;20175;-65
2021/10/19 11:34:22;;;;;;;9.80;9.00;;;16.00;99.90;;;;;;5059834;28;20197;-64
2021/10/19 11:36:47;;;;;;;10.50;9.60;;;16.10;99.90;;;;;;5071505;28;20193;-66
2021/10/19 11:39:15;;;;;;;11.00;10.20;;;16.20;99.90;;;;;;5070875;28;20174;-65
2021/10/19 11:41:46;;;;;;;9.53;8.83;;;16.20;99.90;;;;;;5052102;28;20174;-65
2021/10/19 11:44:13;;;;;;;12.07;11.27;;;16.30;99.90;;;;;;5051089;28;20171;-65
2021/10/19 11:46:40;;;;;;;12.17;11.27;;;16.30;99.90;;;;;;5069329;28;20194;-66
2021/10/19 11:49:18;;;;;;;10.70;9.90;;;16.40;99.90;;;;;;5071071;28;20174;-66
2021/10/19 11:51:50;;;;;;;10.77;9.97;;;16.50;99.90;;;;;;5069580;28;20182;-66
2021/10/19 11:54:16;;;;;;;13.03;12.23;;;16.60;99.90;;;;;;5071097;28;20375;-66
2021/10/19 11:57:00;;;;;;;9.13;8.43;;;16.60;99.90;;;;;;5053209;28;20198;-66
2021/10/19 11:59:26;;;;;;;11.73;10.93;;;16.60;99.90;;;;;;5050710;28;20670;-65
2021/10/19 12:01:53;;;;;;;10.27;9.37;;;16.70;99.90;;;;;;5071000;28;20178;-65
2021/10/19 12:04:24;;;;;;;10.20;9.50;;;16.80;99.90;;;;;;5075299;28;20627;-66
2021/10/19 12:06:51;;;;;;;9.93;9.27;;;16.90;99.90;;;;;;5055835;28;20222;-66
2021/10/19 12:09:20;;;;;;;13.40;12.60;;;17.10;99.90;;;;;;5058960;28;20538;-65
2021/10/19 12:11:57;;;;;;;8.17;7.67;;;17.20;99.90;;;;;;5054940;28;20492;-65
2021/10/19 12:14:31;;;;;;;11.00;10.10;;;17.20;99.90;;;;;;5065881;28;20201;-66
2021/10/19 12:17:01;;;;;;;8.13;7.53;;;17.30;99.90;;;;;;5073482;28;20177;-66
2021/10/19 12:19:27;;;;;;;21.70;20.37;;;17.50;99.90;;;;;;5063019;28;20190;-65
2021/10/19 12:21:56;;;;;;;7.87;7.37;;;17.60;99.90;;;;;;5055031;28;20753;-65
2021/10/19 12:24:23;;;;;;;9.17;8.67;;;17.60;99.90;;;;;;5064461;28;20174;-66
2021/10/19 12:26:59;;;;;;;8.93;8.23;;;17.70;99.90;;;;;;5074649;28;20201;-65
2021/10/19 12:29:24;;;;;;;8.83;8.13;;;17.70;99.90;;;;;;5064088;28;20655;-66